Elgin, Nevada
Current Conditions -  °F | °C
As of 1:15 AM on Friday 31 Oct 2014 (Local Time) from KSGU Reporting Station
Clear Clear  
Wind Chill: 61°   Ceiling: Unl
Heat Index: 61°   Visibility: 10mi
Dew Point: 25°   Wind: 7mph
Humidity: 25%   Direction: 80°E
Pressure: 30.05"   Gusts: NA
Location:  37.2951°N, 114.495°W
Report Text: KSGU 310815Z AUTO 08006KT 10SM CLR 16/M04 A3005 RMK AO1
Loading
Personal Weather Stations






























Interactive Weather Map
Tropical Storm Tracking
New forecast layout! Learn more

10-Day Weather Forecast

Advertisements
Track Severe Weather on mobile